Time;durP1;ratioP1;P1;durP2;ratioP2;P2;SDS_P1;SDS_P2;PMS_P1;PMS_P2;Temp;Humidity;BMP_temperature;BMP_pressure;BME280_temperature;BME280_humidity;BME280_pressure;Samples;Min_cycle;Max_cycle;Signal;HPM_P1;HPM_P2
2022/05/11 00:00:42;;;;;;;11.90;10.77;;;25.40;48.00;;;;;;5063863;28;20434;-45
2022/05/11 00:03:08;;;;;;;11.03;10.13;;;25.20;48.30;;;;;;5050322;28;21242;-44
2022/05/11 00:05:34;;;;;;;11.50;10.60;;;25.20;48.20;;;;;;5051787;28;20443;-46
2022/05/11 00:08:00;;;;;;;11.60;10.70;;;25.20;48.30;;;;;;5055855;28;20196;-45
2022/05/11 00:10:26;;;;;;;11.60;10.60;;;25.20;48.30;;;;;;5058103;28;20462;-44
2022/05/11 00:12:52;;;;;;;10.80;10.00;;;25.20;48.50;;;;;;5057875;28;20196;-46
2022/05/11 00:15:20;;;;;;;13.20;10.30;;;25.20;48.40;;;;;;5054674;28;20220;-45
2022/05/11 00:17:46;;;;;;;12.00;10.93;;;25.20;48.40;;;;;;5054719;28;20200;-45
2022/05/11 00:20:13;;;;;;;12.53;10.93;;;25.10;48.60;;;;;;5054278;28;20859;-45
2022/05/11 00:22:38;;;;;;;14.37;12.07;;;24.80;49.20;;;;;;5058641;28;20193;-44
2022/05/11 00:25:07;;;;;;;11.10;10.20;;;24.80;49.40;;;;;;5055667;28;20446;-45
2022/05/11 00:27:33;;;;;;;12.43;11.23;;;24.80;49.40;;;;;;5050255;28;20192;-45
2022/05/11 00:29:58;;;;;;;11.30;10.30;;;24.80;49.20;;;;;;5058391;28;20935;-44
2022/05/11 00:32:25;;;;;;;11.57;10.70;;;24.80;49.30;;;;;;5055356;28;20449;-47
2022/05/11 00:34:54;;;;;;;11.67;10.73;;;24.80;49.40;;;;;;5051537;28;20241;-46
2022/05/11 00:37:21;;;;;;;12.50;11.30;;;24.80;49.20;;;;;;5065977;28;21009;-44
2022/05/11 00:39:47;;;;;;;11.30;10.50;;;24.80;49.10;;;;;;5065460;28;20446;-48
2022/05/11 00:42:12;;;;;;;13.13;11.93;;;24.80;49.10;;;;;;5061458;28;21027;-49
2022/05/11 00:44:38;;;;;;;11.50;10.50;;;24.80;49.00;;;;;;5059553;28;20675;-44
2022/05/11 00:47:21;;;;;;;11.47;10.57;;;24.80;49.10;;;;;;5052355;28;20269;-48
2022/05/11 00:50:03;;;;;;;11.60;10.70;;;24.80;48.90;;;;;;5054880;28;20196;-45
2022/05/11 00:52:43;;;;;;;12.53;11.53;;;24.70;49.00;;;;;;5063789;28;20446;-46
2022/05/11 00:55:16;;;;;;;16.10;10.70;;;24.70;49.20;;;;;;5061871;28;20515;-49
2022/05/11 00:58:02;;;;;;;12.70;11.37;;;24.70;49.20;;;;;;5049053;28;22318;-45
2022/05/11 01:00:28;;;;;;;13.80;12.53;;;24.70;49.20;;;;;;5050266;28;20447;-49
2022/05/11 01:03:04;;;;;;;11.57;10.57;;;24.60;49.20;;;;;;5053705;28;20463;-45
2022/05/11 01:05:30;;;;;;;11.70;10.67;;;24.60;49.40;;;;;;5056336;28;20433;-47
2022/05/11 01:07:57;;;;;;;11.93;10.83;;;24.50;49.20;;;;;;5056310;28;20443;-45
2022/05/11 01:10:25;;;;;;;11.73;10.73;;;24.40;49.60;;;;;;5057869;28;20253;-48
2022/05/11 01:12:54;;;;;;;12.57;11.27;;;24.10;50.40;;;;;;5053749;28;20452;-46
2022/05/11 01:15:21;;;;;;;12.90;11.70;;;23.90;50.80;;;;;;5051321;28;20939;-46
2022/05/11 01:17:47;;;;;;;11.17;10.27;;;23.80;51.20;;;;;;5054931;28;20934;-45
2022/05/11 01:20:19;;;;;;;11.60;10.60;;;23.90;51.00;;;;;;5044797;28;20450;-47
2022/05/11 01:23:01;;;;;;;11.60;10.70;;;23.90;50.90;;;;;;5055782;28;20441;-45
2022/05/11 01:25:27;;;;;;;12.10;11.20;;;23.90;50.80;;;;;;5058214;28;20493;-45
2022/05/11 01:28:05;;;;;;;10.70;9.90;;;23.90;50.50;;;;;;5053946;28;20803;-45
2022/05/11 01:30:31;;;;;;;11.57;10.57;;;24.00;50.40;;;;;;5051032;28;20202;-46
2022/05/11 01:32:57;;;;;;;13.23;12.03;;;23.90;50.50;;;;;;5052135;28;20867;-44
2022/05/11 01:35:55;;;;;;;11.57;10.60;;;23.90;50.60;;;;;;5060921;28;20493;-44
2022/05/11 01:38:43;;;;;;;12.43;11.10;;;23.40;51.70;;;;;;5052917;28;20451;-48
2022/05/11 01:41:16;;;;;;;11.67;10.67;;;23.30;52.10;;;;;;5054879;28;20457;-44
2022/05/11 01:43:42;;;;;;;11.73;10.63;;;23.30;51.90;;;;;;5055693;28;20454;-45
2022/05/11 01:46:08;;;;;;;13.00;11.90;;;23.40;51.70;;;;;;5053323;28;20433;-46
2022/05/11 01:48:34;;;;;;;12.10;11.10;;;23.50;51.40;;;;;;5063173;28;20206;-48
2022/05/11 01:51:00;;;;;;;12.00;10.90;;;23.60;51.20;;;;;;5065706;28;20800;-46
2022/05/11 01:53:27;;;;;;;11.90;10.90;;;23.60;51.10;;;;;;5053675;28;20560;-44
2022/05/11 01:55:53;;;;;;;12.40;11.10;;;23.70;51.00;;;;;;5069969;28;20486;-45
2022/05/11 01:58:20;;;;;;;12.33;11.13;;;23.60;50.90;;;;;;5066363;28;22180;-48
2022/05/11 02:00:47;;;;;;;10.90;10.10;;;23.70;50.90;;;;;;5067637;28;20211;-47
2022/05/11 02:03:14;;;;;;;11.20;10.30;;;23.70;50.80;;;;;;5070519;28;20461;-46
2022/05/11 02:08:26;;;;;;;10.57;9.60;;;23.80;50.50;;;;;;5061061;28;20520;-45
2022/05/11 02:10:53;;;;;;;11.00;9.90;;;23.80;50.20;;;;;;5068902;28;20458;-45
2022/05/11 02:13:18;;;;;;;10.97;9.97;;;23.80;50.30;;;;;;5066734;28;20479;-45
2022/05/11 02:15:44;;;;;;;11.23;10.30;;;23.80;50.30;;;;;;5067422;28;20505;-44
2022/05/11 02:18:10;;;;;;;11.67;10.77;;;23.80;50.20;;;;;;5068782;28;20185;-46
2022/05/11 02:20:35;;;;;;;10.93;10.13;;;23.80;50.20;;;;;;5064371;28;20562;-47
2022/05/11 02:23:02;;;;;;;11.43;10.43;;;23.80;50.30;;;;;;5056532;28;20193;-44
2022/05/11 02:25:27;;;;;;;12.50;11.40;;;23.70;50.30;;;;;;5060211;28;20192;-44
2022/05/11 02:27:54;;;;;;;11.10;10.00;;;23.70;50.10;;;;;;5058566;28;20439;-45
2022/05/11 02:30:28;;;;;;;11.50;10.60;;;23.70;50.10;;;;;;5069231;28;20245;-46
2022/05/11 02:32:55;;;;;;;11.33;10.50;;;23.70;50.30;;;;;;5063389;28;20450;-45
2022/05/11 02:35:22;;;;;;;12.10;10.93;;;23.60;50.20;;;;;;5057751;28;20469;-48
2022/05/11 02:37:55;;;;;;;11.67;10.70;;;23.60;50.40;;;;;;5061263;28;20446;-44
2022/05/11 02:40:32;;;;;;;11.47;10.57;;;23.60;50.20;;;;;;5061135;28;20503;-44
2022/05/11 02:42:57;;;;;;;11.60;10.70;;;23.40;50.40;;;;;;5060848;28;20469;-46
2022/05/11 02:45:25;;;;;;;12.23;11.23;;;23.30;50.70;;;;;;5069441;28;20455;-45
2022/05/11 02:47:53;;;;;;;13.13;11.87;;;23.10;51.10;;;;;;5065284;28;20563;-46
2022/05/11 02:50:24;;;;;;;12.50;11.40;;;22.90;51.30;;;;;;5056665;28;20442;-45
2022/05/11 02:52:50;;;;;;;10.60;9.90;;;22.70;51.70;;;;;;5053983;28;20446;-46
2022/05/11 02:55:16;;;;;;;11.80;10.80;;;22.60;52.00;;;;;;5056789;28;20473;-45
2022/05/11 02:57:42;;;;;;;11.63;10.60;;;22.50;52.30;;;;;;5062109;28;20196;-46
2022/05/11 03:00:11;;;;;;;12.90;11.60;;;22.20;52.80;;;;;;5053661;28;20223;-46
2022/05/11 03:02:36;;;;;;;12.73;11.53;;;22.10;53.00;;;;;;5060079;28;20992;-47
2022/05/11 03:05:03;;;;;;;13.70;11.53;;;21.90;53.50;;;;;;5056434;28;20477;-44
2022/05/11 03:07:28;;;;;;;11.97;11.00;;;21.90;53.70;;;;;;5062056;28;20202;-45
2022/05/11 03:09:54;;;;;;;13.47;12.33;;;21.70;54.10;;;;;;5058620;28;20446;-44
2022/05/11 03:12:22;;;;;;;11.60;10.60;;;21.70;54.20;;;;;;5047259;28;20226;-46
2022/05/11 03:14:49;;;;;;;11.70;10.70;;;21.60;54.50;;;;;;5052172;28;20211;-45
2022/05/11 03:17:14;;;;;;;11.93;10.83;;;21.50;54.70;;;;;;5068138;28;20490;-44
2022/05/11 03:19:40;;;;;;;11.93;10.87;;;21.50;55.00;;;;;;5060444;28;20546;-45
2022/05/11 03:22:06;;;;;;;12.03;11.00;;;21.30;55.00;;;;;;5061313;28;20591;-45
2022/05/11 03:24:31;;;;;;;11.03;10.13;;;21.30;55.20;;;;;;5051111;28;20199;-45
2022/05/11 03:26:57;;;;;;;10.70;9.90;;;21.30;55.20;;;;;;5052972;28;20262;-45
2022/05/11 03:29:23;;;;;;;12.10;11.10;;;21.20;55.30;;;;;;5055107;28;20195;-46
2022/05/11 03:34:36;;;;;;;15.10;11.83;;;21.20;55.20;;;;;;5057097;28;20208;-45
2022/05/11 03:37:04;;;;;;;12.20;11.10;;;21.00;55.50;;;;;;5066834;28;20888;-47
2022/05/11 03:39:30;;;;;;;11.07;10.07;;;21.10;55.40;;;;;;5066108;28;20886;-48
2022/05/11 03:41:55;;;;;;;10.80;9.90;;;21.10;55.30;;;;;;5059795;28;20445;-47
2022/05/11 03:44:21;;;;;;;10.83;9.83;;;21.00;55.10;;;;;;5054688;28;20247;-47
2022/05/11 03:46:46;;;;;;;11.77;10.73;;;21.10;55.20;;;;;;5060046;28;20200;-44
2022/05/11 03:49:12;;;;;;;10.00;9.00;;;21.10;55.10;;;;;;5060909;28;20195;-45
2022/05/11 03:51:37;;;;;;;11.03;9.80;;;21.00;55.10;;;;;;5054301;28;20282;-49
2022/05/11 03:54:03;;;;;;;10.10;9.20;;;20.90;55.70;;;;;;5064543;28;20196;-47
2022/05/11 03:56:29;;;;;;;10.67;9.67;;;20.70;55.70;;;;;;5059601;28;20280;-46
2022/05/11 03:58:56;;;;;;;10.10;9.20;;;20.70;55.90;;;;;;5051355;28;20200;-44
2022/05/11 04:01:22;;;;;;;9.77;8.93;;;20.70;56.10;;;;;;5051802;28;20244;-44
2022/05/11 04:03:47;;;;;;;9.93;9.13;;;20.70;56.10;;;;;;5054184;28;20499;-47
2022/05/11 04:06:13;;;;;;;10.37;9.47;;;20.70;55.70;;;;;;5051037;28;20220;-46
2022/05/11 04:08:39;;;;;;;11.13;10.10;;;20.70;55.70;;;;;;5055357;28;20200;-47
2022/05/11 04:11:05;;;;;;;10.90;9.97;;;20.70;55.80;;;;;;5063497;28;20200;-47
2022/05/11 04:13:30;;;;;;;10.37;9.37;;;20.60;56.20;;;;;;5055665;28;20638;-48
2022/05/11 04:15:56;;;;;;;9.60;8.80;;;20.60;56.10;;;;;;5057445;28;20235;-46
2022/05/11 04:18:21;;;;;;;11.57;10.40;;;20.70;56.00;;;;;;5053241;28;20264;-46
2022/05/11 04:20:48;;;;;;;9.87;8.97;;;20.70;55.90;;;;;;5060651;28;20200;-45
2022/05/11 04:23:13;;;;;;;11.00;10.00;;;20.70;55.80;;;;;;5055790;28;20195;-45
2022/05/11 04:25:39;;;;;;;11.67;10.57;;;20.40;56.60;;;;;;5056172;28;20465;-45
2022/05/11 04:28:13;;;;;;;9.13;8.23;;;20.60;56.60;;;;;;5063163;28;20635;-45
2022/05/11 04:30:39;;;;;;;9.50;8.70;;;20.70;56.00;;;;;;5055302;28;20195;-44
2022/05/11 04:33:07;;;;;;;10.30;9.50;;;20.80;55.60;;;;;;5059524;28;20895;-44
2022/05/11 04:35:34;;;;;;;10.73;9.83;;;20.60;56.00;;;;;;5057349;28;20486;-46
2022/05/11 04:38:01;;;;;;;10.57;9.60;;;20.60;56.20;;;;;;5057893;28;20445;-47
2022/05/11 04:40:27;;;;;;;11.20;10.10;;;20.60;56.20;;;;;;5048327;28;20453;-47
2022/05/11 04:42:53;;;;;;;10.33;9.43;;;20.40;56.50;;;;;;5057699;28;20890;-46
2022/05/11 04:45:20;;;;;;;11.53;10.37;;;20.40;56.80;;;;;;5055519;28;20512;-45
2022/05/11 04:47:46;;;;;;;9.23;8.33;;;20.20;57.50;;;;;;5062337;28;20462;-45
2022/05/11 04:50:14;;;;;;;10.70;9.67;;;20.00;57.40;;;;;;5057812;28;20442;-44
2022/05/11 04:52:40;;;;;;;10.03;9.03;;;20.00;57.70;;;;;;5059331;28;20534;-45
2022/05/11 04:55:09;;;;;;;12.23;9.80;;;19.90;58.20;;;;;;5059167;28;20514;-44
2022/05/11 04:57:35;;;;;;;10.43;9.63;;;20.00;58.40;;;;;;5060560;28;20282;-45
2022/05/11 05:00:03;;;;;;;11.50;10.40;;;20.20;58.00;;;;;;5059885;28;20801;-48
2022/05/11 05:02:29;;;;;;;10.53;9.63;;;20.30;57.80;;;;;;5063024;28;20910;-45
2022/05/11 05:04:59;;;;;;;10.47;9.37;;;20.30;57.50;;;;;;5056793;28;20533;-45
2022/05/11 05:07:25;;;;;;;8.97;8.17;;;20.30;57.60;;;;;;5062921;28;20452;-44
2022/05/11 05:09:50;;;;;;;9.10;8.30;;;20.20;58.10;;;;;;5064568;28;20454;-46
2022/05/11 05:12:16;;;;;;;9.10;8.30;;;20.00;57.40;;;;;;5056074;28;20216;-45
2022/05/11 05:14:42;;;;;;;13.07;8.90;;;20.10;57.80;;;;;;5059697;28;20184;-44
2022/05/11 05:17:09;;;;;;;13.70;7.63;;;20.30;59.60;;;;;;5058807;28;20996;-46
2022/05/11 05:19:40;;;;;;;13.10;7.90;;;20.60;58.40;;;;;;5059747;28;20253;-43
2022/05/11 05:22:06;;;;;;;9.53;7.63;;;21.00;56.70;;;;;;5056850;28;20456;-45
2022/05/11 05:24:32;;;;;;;8.20;7.40;;;21.40;55.30;;;;;;5060256;28;20431;-44
2022/05/11 05:26:59;;;;;;;8.73;8.03;;;21.60;54.70;;;;;;5067973;28;20442;-44
2022/05/11 05:32:09;;;;;;;11.13;7.53;;;22.10;53.50;;;;;;5060478;28;20204;-46
2022/05/11 05:34:34;;;;;;;23.43;8.00;;;22.40;53.10;;;;;;5066340;28;20442;-44
2022/05/11 05:37:00;;;;;;;8.10;7.30;;;22.50;52.80;;;;;;5057682;28;20222;-43
2022/05/11 05:39:26;;;;;;;9.17;8.37;;;22.50;52.00;;;;;;5058815;28;20401;-43
2022/05/11 05:41:52;;;;;;;8.60;8.00;;;22.40;52.30;;;;;;5053347;28;20194;-45
2022/05/11 05:44:18;;;;;;;9.43;8.63;;;22.40;52.30;;;;;;5063025;28;20787;-46
2022/05/11 05:46:45;;;;;;;8.10;7.40;;;22.60;52.10;;;;;;5056206;28;20920;-48
2022/05/11 05:49:12;;;;;;;9.20;8.40;;;22.70;51.90;;;;;;5070025;28;20484;-44
2022/05/11 05:51:39;;;;;;;8.73;8.03;;;22.80;51.70;;;;;;5055486;28;20434;-45
2022/05/11 05:54:05;;;;;;;8.87;8.07;;;22.90;51.60;;;;;;5071529;28;20815;-47
2022/05/11 05:56:32;;;;;;;8.50;7.80;;;22.90;51.10;;;;;;5059957;28;20485;-43
2022/05/11 05:59:01;;;;;;;8.10;7.40;;;22.80;51.30;;;;;;5063356;28;20446;-45
2022/05/11 06:01:28;;;;;;;7.40;6.80;;;22.90;51.00;;;;;;5066534;28;20827;-45
2022/05/11 06:03:53;;;;;;;7.13;6.23;;;22.90;51.20;;;;;;5061419;28;20446;-43
2022/05/11 06:06:21;;;;;;;7.20;6.50;;;22.80;51.40;;;;;;5054543;28;20452;-44
2022/05/11 06:08:47;;;;;;;9.30;6.67;;;22.90;51.00;;;;;;5060303;28;20322;-44
2022/05/11 06:11:12;;;;;;;6.60;6.00;;;22.90;51.00;;;;;;5058505;28;21060;-45
2022/05/11 06:13:38;;;;;;;7.50;6.80;;;23.10;50.80;;;;;;5063388;28;20612;-45
2022/05/11 06:16:10;;;;;;;7.67;6.70;;;23.30;50.50;;;;;;5064270;28;20254;-43
2022/05/11 06:18:36;;;;;;;7.60;7.10;;;23.30;50.10;;;;;;5059262;28;20435;-44
2022/05/11 06:21:02;;;;;;;8.40;7.70;;;23.40;49.90;;;;;;5070512;28;20507;-43
2022/05/11 06:23:28;;;;;;;8.10;7.30;;;23.70;49.20;;;;;;5058290;28;20454;-43
2022/05/11 06:25:53;;;;;;;7.57;6.87;;;24.00;48.80;;;;;;5070617;28;20196;-44
2022/05/11 06:28:19;;;;;;;6.67;6.17;;;24.30;48.40;;;;;;5056367;28;20207;-44
2022/05/11 06:30:46;;;;;;;7.07;6.47;;;24.50;47.80;;;;;;5057200;28;20366;-46
2022/05/11 06:33:12;;;;;;;7.20;6.50;;;24.70;47.50;;;;;;5068465;28;20856;-44
2022/05/11 06:35:38;;;;;;;6.93;6.33;;;24.80;47.20;;;;;;5054890;28;20489;-43
2022/05/11 06:38:05;;;;;;;8.27;6.23;;;24.90;47.00;;;;;;5058335;28;20199;-44
2022/05/11 06:40:31;;;;;;;6.40;5.90;;;25.00;47.00;;;;;;5062545;28;20246;-44
2022/05/11 06:42:57;;;;;;;6.03;5.53;;;25.10;47.00;;;;;;5063944;28;20446;-44
2022/05/11 06:45:23;;;;;;;7.07;6.47;;;25.20;46.90;;;;;;5064152;28;20450;-44
2022/05/11 06:47:49;;;;;;;6.70;6.20;;;25.20;46.40;;;;;;5062077;28;20450;-43
2022/05/11 06:50:16;;;;;;;8.17;5.90;;;25.10;46.30;;;;;;5069605;28;20192;-44
2022/05/11 06:52:42;;;;;;;5.77;5.23;;;24.90;47.10;;;;;;5050929;28;20482;-44
2022/05/11 07:00:37;;;;;;;6.17;5.67;;;25.00;46.60;;;;;;5060211;28;20522;-45
2022/05/11 07:03:04;;;;;;;5.80;5.13;;;25.20;46.60;;;;;;5052574;28;20474;-45
2022/05/11 07:05:32;;;;;;;5.40;4.90;;;25.40;46.10;;;;;;5064084;28;20188;-46
2022/05/11 07:07:58;;;;;;;6.17;5.67;;;25.60;45.70;;;;;;5062252;28;20446;-45
2022/05/11 07:10:25;;;;;;;6.00;5.50;;;25.80;45.60;;;;;;5070056;28;20515;-47
2022/05/11 07:12:50;;;;;;;5.83;5.30;;;25.90;45.50;;;;;;5073237;28;20453;-44
2022/05/11 07:15:19;;;;;;;8.40;5.13;;;26.00;44.50;;;;;;5073488;28;20430;-45
2022/05/11 07:17:56;;;;;;;5.40;5.00;;;26.10;44.10;;;;;;5062951;28;20201;-49
2022/05/11 07:20:27;;;;;;;5.57;4.93;;;26.20;44.00;;;;;;5068865;28;20595;-45
2022/05/11 07:22:53;;;;;;;5.80;5.30;;;26.20;43.80;;;;;;5069215;28;20438;-48
2022/05/11 07:25:22;;;;;;;5.50;5.10;;;26.10;43.90;;;;;;5068697;28;20933;-45
2022/05/11 07:27:48;;;;;;;5.83;5.40;;;26.20;43.90;;;;;;5069450;28;20453;-46
2022/05/11 07:30:21;;;;;;;5.67;5.17;;;26.30;43.50;;;;;;5060545;28;20442;-48
2022/05/11 07:32:46;;;;;;;6.63;5.07;;;26.40;43.70;;;;;;5060945;28;20438;-44
2022/05/11 07:35:12;;;;;;;5.57;5.07;;;26.50;43.40;;;;;;5067884;28;20959;-45
2022/05/11 07:37:38;;;;;;;4.80;4.50;;;26.60;43.60;;;;;;5069356;28;20188;-47
2022/05/11 07:40:06;;;;;;;7.37;5.20;;;26.70;43.20;;;;;;5060976;28;20203;-46
2022/05/11 07:42:32;;;;;;;9.03;5.23;;;26.80;43.20;;;;;;5059441;28;20435;-44
2022/05/11 07:44:58;;;;;;;5.70;5.30;;;26.90;43.10;;;;;;5067575;28;20438;-47
2022/05/11 07:47:24;;;;;;;5.60;5.17;;;27.00;42.80;;;;;;5062508;28;20450;-45
2022/05/11 07:49:50;;;;;;;5.33;4.83;;;27.00;42.90;;;;;;5069764;28;20196;-46
2022/05/11 07:52:15;;;;;;;6.00;5.60;;;27.10;43.00;;;;;;5071263;28;20539;-45
2022/05/11 07:54:41;;;;;;;6.33;5.83;;;27.10;42.80;;;;;;5065451;28;20188;-45
2022/05/11 07:59:56;;;;;;;5.43;4.87;;;27.40;42.90;;;;;;5062840;28;20596;-48
2022/05/11 08:02:26;;;;;;;7.20;5.50;;;27.50;42.50;;;;;;5051938;28;20844;-45
2022/05/11 08:04:53;;;;;;;6.93;4.93;;;27.50;42.20;;;;;;5057689;28;20473;-43
2022/05/11 08:07:22;;;;;;;6.70;4.87;;;27.50;42.00;;;;;;5056573;28;20444;-44
2022/05/11 08:09:47;;;;;;;5.40;5.00;;;27.60;41.90;;;;;;5061917;28;20628;-47
2022/05/11 08:12:13;;;;;;;6.90;4.63;;;27.70;42.10;;;;;;5054596;28;20541;-46
2022/05/11 08:14:39;;;;;;;8.20;4.63;;;27.60;42.10;;;;;;5068570;28;20194;-49
2022/05/11 08:17:05;;;;;;;5.73;5.13;;;27.70;41.80;;;;;;5064310;28;20298;-49
2022/05/11 08:19:30;;;;;;;5.67;5.03;;;27.70;40.90;;;;;;5065613;28;20282;-46
2022/05/11 08:21:56;;;;;;;11.60;6.23;;;27.70;41.00;;;;;;5068903;28;20212;-48
2022/05/11 08:24:22;;;;;;;4.97;4.57;;;27.80;41.00;;;;;;5056550;28;20188;-46
2022/05/11 08:26:51;;;;;;;5.40;5.00;;;27.90;41.10;;;;;;5061821;28;21021;-48
2022/05/11 08:34:50;;;;;;;5.23;4.73;;;28.00;40.50;;;;;;5065675;28;20592;-46
2022/05/11 08:37:15;;;;;;;5.33;4.40;;;28.20;40.80;;;;;;5063500;28;20590;-45
2022/05/11 08:39:42;;;;;;;5.63;5.13;;;28.30;40.30;;;;;;5057765;28;20270;-48
2022/05/11 08:42:08;;;;;;;4.97;4.63;;;28.50;40.10;;;;;;5059907;28;20196;-47
2022/05/11 08:44:37;;;;;;;5.10;4.60;;;28.70;39.50;;;;;;5065785;28;20496;-47
2022/05/11 08:47:23;;;;;;;4.60;4.20;;;28.90;39.30;;;;;;5061575;28;20793;-47
2022/05/11 08:50:09;;;;;;;4.93;4.63;;;29.20;39.00;;;;;;5063247;28;20500;-46
2022/05/11 08:52:41;;;;;;;5.00;4.60;;;29.30;38.80;;;;;;5061819;28;20525;-48
2022/05/11 08:55:37;;;;;;;5.40;4.17;;;29.50;38.10;;;;;;5054410;28;20441;-44
2022/05/11 08:58:11;;;;;;;4.17;3.93;;;29.70;38.00;;;;;;5065058;28;20462;-45
2022/05/11 09:00:40;;;;;;;4.53;4.20;;;29.80;36.50;;;;;;5069394;28;20449;-46
2022/05/11 09:03:32;;;;;;;4.10;3.80;;;29.60;34.10;;;;;;5030127;28;20856;-44
2022/05/11 09:05:59;;;;;;;4.07;3.73;;;29.50;35.30;;;;;;5038568;28;20553;-45
2022/05/11 09:08:26;;;;;;;4.10;3.80;;;29.70;35.50;;;;;;5037037;28;20447;-44
2022/05/11 09:10:52;;;;;;;5.53;3.87;;;29.70;34.70;;;;;;5038998;28;20502;-45
2022/05/11 09:13:20;;;;;;;3.97;3.67;;;29.80;34.60;;;;;;5040250;28;20810;-45
2022/05/11 09:15:55;;;;;;;4.37;3.97;;;29.90;33.80;;;;;;5043846;28;20484;-44
2022/05/11 09:18:30;;;;;;;4.70;4.30;;;29.90;33.60;;;;;;5041171;28;20979;-45
2022/05/11 09:20:57;;;;;;;5.67;3.30;;;30.10;34.10;;;;;;5034813;28;20443;-46
2022/05/11 09:23:38;;;;;;;4.40;4.10;;;30.10;34.20;;;;;;5046298;28;20497;-45
2022/05/11 09:26:08;;;;;;;6.33;4.30;;;30.30;34.10;;;;;;5047659;28;20450;-44
2022/05/11 09:28:37;;;;;;;4.47;4.07;;;30.40;33.80;;;;;;5049940;28;20483;-44
2022/05/11 09:31:12;;;;;;;5.10;4.80;;;30.10;33.10;;;;;;5047354;28;20440;-44
2022/05/11 09:33:39;;;;;;;5.37;4.40;;;30.00;33.80;;;;;;5046900;28;20443;-46
2022/05/11 09:36:10;;;;;;;4.27;3.90;;;29.90;34.20;;;;;;5044037;28;20577;-44
2022/05/11 09:38:42;;;;;;;5.60;4.30;;;30.00;34.20;;;;;;5037560;28;20942;-45
2022/05/11 09:41:19;;;;;;;5.90;4.17;;;30.00;33.40;;;;;;5038774;28;20504;-44
2022/05/11 09:43:51;;;;;;;5.20;4.70;;;30.00;33.70;;;;;;5040065;28;20825;-44
2022/05/11 09:46:36;;;;;;;4.50;3.90;;;29.90;34.30;;;;;;5041170;28;20475;-46
2022/05/11 09:49:17;;;;;;;5.33;4.63;;;30.10;34.00;;;;;;5036760;28;20455;-48
2022/05/11 09:51:54;;;;;;;4.80;4.50;;;30.30;34.30;;;;;;5046623;28;20443;-47
2022/05/11 09:54:38;;;;;;;5.30;4.87;;;30.30;34.00;;;;;;5045577;28;20458;-46
2022/05/11 09:57:09;;;;;;;4.80;4.30;;;30.40;33.10;;;;;;5048385;28;21250;-47
2022/05/11 09:59:41;;;;;;;4.97;4.50;;;30.70;33.80;;;;;;5035098;28;20447;-45
2022/05/11 10:02:30;;;;;;;4.40;4.00;;;30.90;34.00;;;;;;5050561;28;21031;-46
2022/05/11 10:05:02;;;;;;;5.60;4.93;;;30.90;34.20;;;;;;5053170;28;20450;-46
2022/05/11 10:07:32;;;;;;;5.00;4.70;;;30.80;33.20;;;;;;5064398;28;20451;-46
2022/05/11 10:10:27;;;;;;;4.80;4.30;;;30.80;33.20;;;;;;5054927;28;20480;-46
2022/05/11 10:12:58;;;;;;;5.20;4.80;;;30.80;33.80;;;;;;5053692;28;20446;-44
2022/05/11 10:24:54;;;;;;;5.17;4.77;;;31.30;33.70;;;;;;5060012;28;20493;-45
2022/05/11 10:27:43;;;;;;;7.60;5.30;;;31.40;33.20;;;;;;5056799;28;20442;-44
2022/05/11 10:30:22;;;;;;;5.20;4.70;;;31.50;33.60;;;;;;5061414;28;20468;-47
2022/05/11 10:33:07;;;;;;;5.30;4.90;;;31.40;33.20;;;;;;5064323;28;21359;-45
2022/05/11 10:35:53;;;;;;;7.40;4.80;;;31.40;32.40;;;;;;5062624;28;20478;-44
2022/05/11 10:38:22;;;;;;;5.73;5.23;;;31.50;32.60;;;;;;5067988;28;20447;-47
2022/05/11 10:40:53;;;;;;;5.40;4.93;;;31.60;33.00;;;;;;5062400;28;20453;-47
2022/05/11 10:43:19;;;;;;;6.17;5.67;;;31.70;32.70;;;;;;5062841;28;20446;-45
2022/05/11 10:45:54;;;;;;;9.17;4.80;;;31.90;31.70;;;;;;5056899;28;20544;-44
2022/05/11 10:48:43;;;;;;;5.13;4.63;;;32.00;31.90;;;;;;5057242;28;20704;-44
2022/05/11 10:51:36;;;;;;;5.27;4.87;;;32.10;31.60;;;;;;5063999;28;20477;-45
2022/05/11 10:54:12;;;;;;;5.20;4.90;;;32.20;31.70;;;;;;5065071;28;20964;-46
2022/05/11 10:57:00;;;;;;;5.17;4.73;;;32.10;31.20;;;;;;5067772;28;20492;-48
2022/05/11 10:59:47;;;;;;;4.90;4.50;;;32.10;30.70;;;;;;5062665;28;20452;-45
2022/05/11 11:02:48;;;;;;;5.00;4.60;;;32.20;30.90;;;;;;5062850;28;20869;-48
2022/05/11 11:05:43;;;;;;;5.17;4.87;;;32.50;30.80;;;;;;5064321;28;20454;-44
2022/05/11 11:08:30;;;;;;;7.20;4.73;;;32.60;29.60;;;;;;5052339;28;20488;-49
2022/05/11 11:11:20;;;;;;;4.97;4.50;;;32.50;29.70;;;;;;5064139;28;20975;-49
2022/05/11 11:13:45;;;;;;;4.50;4.20;;;32.50;29.80;;;;;;5067492;28;20461;-48
2022/05/11 11:16:13;;;;;;;5.10;4.70;;;32.70;29.90;;;;;;5063888;28;20481;-47
2022/05/11 11:18:45;;;;;;;4.80;4.50;;;32.90;29.10;;;;;;5070195;28;20199;-46
2022/05/11 11:21:11;;;;;;;4.37;3.97;;;32.80;28.80;;;;;;5060374;28;20433;-47
2022/05/11 11:23:40;;;;;;;4.40;4.10;;;32.80;29.20;;;;;;5059833;28;20551;-47
2022/05/11 11:26:12;;;;;;;4.60;4.30;;;33.00;28.50;;;;;;5059293;28;20458;-45
2022/05/11 11:28:41;;;;;;;4.50;4.20;;;33.10;28.50;;;;;;5066198;28;20540;-46
2022/05/11 11:31:09;;;;;;;4.67;4.37;;;33.00;28.30;;;;;;5060500;28;20442;-44
2022/05/11 11:33:39;;;;;;;6.10;4.30;;;32.70;28.40;;;;;;5067306;28;20438;-47
2022/05/11 11:36:40;;;;;;;4.27;3.87;;;32.70;28.80;;;;;;5050044;28;20821;-46
2022/05/11 11:39:33;;;;;;;4.70;4.30;;;32.80;28.50;;;;;;5055618;28;20442;-48
2022/05/11 11:42:05;;;;;;;5.07;4.60;;;32.90;28.60;;;;;;5055768;28;21352;-48
2022/05/11 11:44:46;;;;;;;4.73;4.33;;;32.90;28.40;;;;;;5061939;28;20604;-44
2022/05/11 11:47:26;;;;;;;4.50;4.20;;;32.90;28.60;;;;;;5061524;28;20816;-49
2022/05/11 11:49:54;;;;;;;4.63;4.27;;;32.90;29.10;;;;;;5055031;28;20458;-47
2022/05/11 11:52:41;;;;;;;4.57;4.27;;;33.00;29.30;;;;;;5062720;28;20449;-45
2022/05/11 11:55:28;;;;;;;5.27;4.60;;;33.00;28.80;;;;;;5058596;28;20504;-44
2022/05/11 11:58:12;;;;;;;5.17;4.27;;;33.00;28.90;;;;;;5054865;28;20502;-47
2022/05/11 12:00:57;;;;;;;4.63;3.73;;;33.00;28.70;;;;;;5060315;28;20521;-45
2022/05/11 12:03:25;;;;;;;5.57;4.30;;;33.00;27.80;;;;;;5043539;28;20463;-45
2022/05/11 12:15:01;;;;;;;4.50;4.20;;;33.20;28.40;;;;;;5031836;28;20806;-45
2022/05/11 12:17:05;;;;;;;3.77;3.50;;;33.30;28.80;;;;;;5043723;28;20538;-44
2022/05/11 12:19:36;;;;;;;3.80;3.60;;;33.70;26.80;;;;;;5037640;28;20508;-48
2022/05/11 12:22:19;;;;;;;3.90;3.50;;;33.60;25.50;;;;;;5041995;28;20432;-45
2022/05/11 12:25:08;;;;;;;3.70;3.40;;;33.50;25.80;;;;;;5042332;28;20445;-46
2022/05/11 12:27:36;;;;;;;6.70;4.27;;;33.50;26.10;;;;;;5036236;28;20454;-44
2022/05/11 12:30:07;;;;;;;5.63;3.70;;;33.70;25.60;;;;;;5031052;28;20531;-46
2022/05/11 12:32:37;;;;;;;4.30;4.00;;;33.70;25.70;;;;;;5042353;28;20446;-46
2022/05/11 12:35:18;;;;;;;3.73;3.13;;;33.70;25.30;;;;;;5038895;28;20447;-46
2022/05/11 12:37:51;;;;;;;3.33;3.03;;;34.00;25.20;;;;;;5034794;28;20467;-45
2022/05/11 12:40:21;;;;;;;3.93;3.63;;;34.00;25.60;;;;;;5044905;28;20454;-43
2022/05/11 12:42:50;;;;;;;4.33;3.60;;;33.70;25.60;;;;;;5032451;28;20462;-44
2022/05/11 12:45:36;;;;;;;4.10;3.70;;;33.50;25.80;;;;;;5036314;28;20475;-45
2022/05/11 12:48:03;;;;;;;3.50;3.30;;;33.50;25.90;;;;;;5048257;28;20430;-44
2022/05/11 12:50:34;;;;;;;4.40;4.00;;;33.80;25.60;;;;;;5039088;28;20447;-45
2022/05/11 12:53:06;;;;;;;4.53;4.13;;;34.10;25.20;;;;;;5039986;28;20897;-44
2022/05/11 12:55:35;;;;;;;4.40;3.70;;;34.00;24.90;;;;;;5042123;28;20501;-48
2022/05/11 12:58:02;;;;;;;6.10;3.47;;;34.20;25.20;;;;;;5046736;28;20875;-49
2022/05/11 13:00:30;;;;;;;8.77;3.60;;;34.40;24.30;;;;;;5048887;28;20492;-46
2022/05/11 13:02:56;;;;;;;3.40;3.00;;;34.10;24.70;;;;;;5063170;28;20965;-48
2022/05/11 13:05:23;;;;;;;3.90;3.60;;;34.00;24.40;;;;;;5066467;28;20865;-45
2022/05/11 13:08:01;;;;;;;6.93;3.23;;;34.10;24.10;;;;;;5059543;28;21469;-45
2022/05/11 13:10:34;;;;;;;3.70;2.97;;;34.30;24.50;;;;;;5062070;28;20457;-46
2022/05/11 13:13:04;;;;;;;3.70;3.40;;;34.50;23.30;;;;;;5066175;28;20450;-43
2022/05/11 13:15:39;;;;;;;4.60;3.30;;;34.40;23.20;;;;;;5051766;28;20450;-43
2022/05/11 13:18:09;;;;;;;3.90;3.37;;;34.20;22.80;;;;;;5055241;28;20457;-45
2022/05/11 13:20:44;;;;;;;5.07;3.50;;;34.10;23.40;;;;;;5063716;28;20481;-46
2022/05/11 13:23:23;;;;;;;5.10;3.20;;;34.10;23.90;;;;;;5066365;28;20433;-44
2022/05/11 13:25:52;;;;;;;3.23;3.03;;;34.00;23.80;;;;;;5067542;28;20519;-44
2022/05/11 13:28:23;;;;;;;3.23;3.03;;;34.00;24.00;;;;;;5067082;28;20437;-46
2022/05/11 13:30:51;;;;;;;5.23;3.60;;;34.10;23.80;;;;;;5066093;28;20446;-44
2022/05/11 13:33:37;;;;;;;3.37;3.17;;;34.30;23.80;;;;;;5066320;28;20529;-46
2022/05/11 13:36:08;;;;;;;3.80;3.50;;;34.50;23.70;;;;;;5058340;28;21102;-45